Time;durP1;ratioP1;P1;durP2;ratioP2;P2;SDS_P1;SDS_P2;PMS_P1;PMS_P2;Temp;Humidity;BMP_temperature;BMP_pressure;BME280_temperature;BME280_humidity;BME280_pressure;Samples;Min_cycle;Max_cycle;Signal;HPM_P1;HPM_P2
2024/01/05 00:00:43;;;;;;;30.48;18.55;;;9.20;98.40;;;;;;5035991;28;20022;-81
2024/01/05 00:03:09;;;;;;;31.05;17.05;;;9.10;98.40;;;;;;5034570;28;20036;-81
2024/01/05 00:05:35;;;;;;;29.90;18.75;;;9.10;98.50;;;;;;5034628;28;20478;-81
2024/01/05 00:08:01;;;;;;;34.45;19.70;;;9.10;98.60;;;;;;5037580;28;20029;-81
2024/01/05 00:10:27;;;;;;;31.58;19.55;;;9.10;98.60;;;;;;5034638;28;20029;-81
2024/01/05 00:12:53;;;;;;;29.77;18.80;;;9.10;98.60;;;;;;5040177;28;20033;-80
2024/01/05 00:15:19;;;;;;;27.85;18.50;;;9.10;98.60;;;;;;5033487;28;20360;-80
2024/01/05 00:17:44;;;;;;;38.65;22.90;;;9.10;98.50;;;;;;5014681;28;20120;-80
2024/01/05 00:20:11;;;;;;;33.97;18.48;;;9.10;98.50;;;;;;4974279;22;20401;-86
2024/01/05 00:22:37;;;;;;;32.50;18.42;;;9.00;98.60;;;;;;5018145;28;20492;-86
2024/01/05 00:25:03;;;;;;;29.73;17.63;;;9.10;98.70;;;;;;5069314;28;20028;-84
2024/01/05 00:27:29;;;;;;;38.72;21.98;;;9.00;98.60;;;;;;5054415;28;20036;-83
2024/01/05 00:29:56;;;;;;;23.75;15.75;;;9.00;98.80;;;;;;5052185;28;20380;-83
2024/01/05 00:32:21;;;;;;;30.30;18.27;;;9.00;98.60;;;;;;5053194;28;20021;-83
2024/01/05 00:34:47;;;;;;;30.67;19.42;;;8.90;98.60;;;;;;5036606;28;20024;-84
2024/01/05 00:37:13;;;;;;;28.88;17.98;;;8.90;98.60;;;;;;5050797;28;20028;-83
2024/01/05 00:39:38;;;;;;;31.48;19.65;;;8.90;98.90;;;;;;5036743;28;20163;-84
2024/01/05 00:42:05;;;;;;;27.05;16.67;;;8.90;98.80;;;;;;5053752;28;20025;-84
2024/01/05 00:44:31;;;;;;;32.63;18.38;;;8.90;98.80;;;;;;5053325;28;20028;-86
2024/01/05 00:46:57;;;;;;;28.75;17.45;;;8.90;98.80;;;;;;5053880;28;20029;-85
2024/01/05 00:49:22;;;;;;;28.23;16.95;;;8.90;98.80;;;;;;5052394;28;20381;-86
2024/01/05 00:51:48;;;;;;;29.17;16.98;;;8.90;98.80;;;;;;5051513;28;20059;-86
2024/01/05 00:54:14;;;;;;;28.23;17.17;;;8.90;98.80;;;;;;5051306;28;20037;-85
2024/01/05 00:56:39;;;;;;;30.88;17.48;;;8.90;98.90;;;;;;5054949;28;20175;-86
2024/01/05 00:59:06;;;;;;;27.70;16.80;;;8.90;99.00;;;;;;5052663;28;20487;-85
2024/01/05 01:01:32;;;;;;;30.38;17.85;;;8.90;98.80;;;;;;5053276;28;20036;-86
2024/01/05 01:03:58;;;;;;;30.73;18.02;;;8.80;98.80;;;;;;5055876;28;20029;-86
2024/01/05 01:06:24;;;;;;;30.77;16.17;;;8.80;98.80;;;;;;5055663;28;20074;-86
2024/01/05 01:08:50;;;;;;;30.58;18.20;;;8.90;98.80;;;;;;5054729;28;20025;-87
2024/01/05 01:11:16;;;;;;;28.58;16.50;;;8.90;98.70;;;;;;5054130;28;20435;-86
2024/01/05 01:13:43;;;;;;;31.38;16.92;;;8.90;98.70;;;;;;5052090;28;20021;-86
2024/01/05 01:16:09;;;;;;;28.15;17.48;;;8.90;98.70;;;;;;5053216;28;20033;-86
2024/01/05 01:18:35;;;;;;;30.10;17.27;;;8.90;98.70;;;;;;5034504;28;20032;-86
2024/01/05 01:21:00;;;;;;;28.08;17.05;;;8.90;98.80;;;;;;5032470;28;20136;-86
2024/01/05 01:23:26;;;;;;;30.13;16.38;;;8.90;98.70;;;;;;5044087;28;20040;-86
2024/01/05 01:25:51;;;;;;;28.63;17.10;;;8.90;98.70;;;;;;5053627;28;20037;-85
2024/01/05 01:28:17;;;;;;;32.00;18.67;;;8.90;98.70;;;;;;5053426;28;20020;-86
2024/01/05 01:30:43;;;;;;;32.85;18.92;;;8.90;98.70;;;;;;5053608;28;20017;-86
2024/01/05 01:33:09;;;;;;;29.13;17.17;;;9.00;98.70;;;;;;5035801;28;20385;-84
2024/01/05 01:35:34;;;;;;;28.00;18.05;;;9.00;98.70;;;;;;5053724;28;20025;-85
2024/01/05 01:38:00;;;;;;;29.02;17.35;;;9.00;98.70;;;;;;5054041;28;20025;-85
2024/01/05 01:40:26;;;;;;;25.88;16.38;;;9.00;98.60;;;;;;5035622;28;20029;-86
2024/01/05 01:42:52;;;;;;;28.13;17.63;;;9.00;98.60;;;;;;5053405;28;20032;-85
2024/01/05 01:45:18;;;;;;;27.67;17.20;;;9.00;98.60;;;;;;5053428;28;20033;-85
2024/01/05 01:47:45;;;;;;;28.67;17.98;;;9.00;98.50;;;;;;5053259;28;20032;-84
2024/01/05 01:50:12;;;;;;;29.83;17.10;;;9.00;98.50;;;;;;5053159;28;20021;-83
2024/01/05 01:52:40;;;;;;;28.58;16.50;;;9.00;98.50;;;;;;5053184;28;20365;-83
2024/01/05 01:55:07;;;;;;;27.67;16.50;;;9.00;98.50;;;;;;5053370;28;20472;-83
2024/01/05 01:57:34;;;;;;;28.23;16.50;;;9.00;98.50;;;;;;5035260;28;20074;-83
2024/01/05 02:00:00;;;;;;;23.38;15.35;;;9.00;98.50;;;;;;5049181;28;20047;-83
2024/01/05 02:02:29;;;;;;;29.95;16.65;;;9.00;98.50;;;;;;5035245;28;20473;-82
2024/01/05 02:04:56;;;;;;;23.95;15.10;;;9.00;98.40;;;;;;5053005;28;20380;-83
2024/01/05 02:07:22;;;;;;;25.23;15.88;;;9.00;98.40;;;;;;5052930;28;20101;-84
2024/01/05 02:09:48;;;;;;;30.52;16.55;;;9.00;98.50;;;;;;5052962;28;20021;-84
2024/01/05 02:12:14;;;;;;;24.15;15.30;;;9.00;98.50;;;;;;5052746;28;20482;-84
2024/01/05 02:14:40;;;;;;;30.63;16.85;;;9.00;98.50;;;;;;5034358;28;20516;-83
2024/01/05 02:17:30;;;;;;;33.83;16.38;;;9.00;98.50;;;;;;5052776;28;20100;-83
2024/01/05 02:19:56;;;;;;;27.23;15.57;;;9.00;98.50;;;;;;5049100;28;20059;-83
2024/01/05 02:22:22;;;;;;;25.92;15.48;;;9.00;98.50;;;;;;5052395;28;20396;-83
2024/01/05 02:24:49;;;;;;;29.30;15.90;;;9.00;98.40;;;;;;5051309;28;20044;-83
2024/01/05 02:27:15;;;;;;;24.85;15.32;;;9.00;98.50;;;;;;5051428;28;20079;-83
2024/01/05 02:29:40;;;;;;;26.65;14.88;;;9.00;98.50;;;;;;5051576;28;20025;-83
2024/01/05 02:32:07;;;;;;;25.05;15.90;;;9.00;98.50;;;;;;5052328;28;20090;-83
2024/01/05 02:34:33;;;;;;;27.00;14.88;;;9.00;98.50;;;;;;5050763;28;20094;-83
2024/01/05 02:36:59;;;;;;;27.60;15.35;;;9.00;98.50;;;;;;5051948;28;20032;-85
2024/01/05 02:39:25;;;;;;;29.23;15.90;;;9.00;98.50;;;;;;5051695;28;20481;-85
2024/01/05 02:41:50;;;;;;;22.00;13.73;;;9.00;98.50;;;;;;5046451;28;20035;-85
2024/01/05 02:44:16;;;;;;;24.60;14.85;;;9.00;98.50;;;;;;5051955;28;20445;-84
2024/01/05 02:46:42;;;;;;;27.35;15.88;;;9.00;98.50;;;;;;5052027;28;20429;-84
2024/01/05 02:49:08;;;;;;;25.05;14.80;;;9.00;98.50;;;;;;5052093;28;20100;-85
2024/01/05 02:51:33;;;;;;;25.95;14.45;;;9.10;98.60;;;;;;5052356;28;20092;-85
2024/01/05 02:53:59;;;;;;;26.45;15.40;;;9.10;98.50;;;;;;5052452;28;20037;-85
2024/01/05 02:56:25;;;;;;;23.13;12.90;;;9.10;98.50;;;;;;5049580;28;20060;-86
2024/01/05 02:58:52;;;;;;;25.67;14.82;;;9.10;98.40;;;;;;5056790;28;20028;-87
2024/01/05 03:01:18;;;;;;;27.30;15.88;;;9.20;98.50;;;;;;5051922;28;20036;-85
2024/01/05 03:03:48;;;;;;;27.55;14.90;;;9.20;98.50;;;;;;5056318;28;20087;-86
2024/01/05 03:06:18;;;;;;;23.38;14.82;;;9.20;98.50;;;;;;5032622;28;20033;-84
2024/01/05 03:08:44;;;;;;;26.02;14.88;;;9.20;98.50;;;;;;5050839;28;20021;-84
2024/01/05 03:11:11;;;;;;;22.77;14.05;;;9.20;98.50;;;;;;5051215;28;20104;-84
2024/01/05 03:13:37;;;;;;;23.23;13.18;;;9.30;98.50;;;;;;5048734;28;20397;-84
2024/01/05 03:16:04;;;;;;;22.63;14.27;;;9.20;98.40;;;;;;5031011;28;20034;-85
2024/01/05 03:18:30;;;;;;;25.75;14.07;;;9.30;98.50;;;;;;5033060;28;20044;-85
2024/01/05 03:20:56;;;;;;;24.02;13.75;;;9.30;98.50;;;;;;5033025;28;20052;-84
2024/01/05 03:23:21;;;;;;;29.10;16.52;;;9.30;98.50;;;;;;5048190;28;20028;-85
2024/01/05 03:25:48;;;;;;;20.85;12.88;;;9.30;98.40;;;;;;5033854;28;20025;-85
2024/01/05 03:28:14;;;;;;;20.00;11.77;;;9.30;98.40;;;;;;5051455;28;20102;-85
2024/01/05 03:30:41;;;;;;;23.35;14.13;;;9.20;98.40;;;;;;5051839;28;20053;-85
2024/01/05 03:33:07;;;;;;;23.10;13.88;;;9.20;98.60;;;;;;5052070;28;20033;-85
2024/01/05 03:35:33;;;;;;;17.73;11.45;;;9.20;98.60;;;;;;5052539;28;20101;-86
2024/01/05 03:37:59;;;;;;;26.95;15.85;;;9.20;98.60;;;;;;5050047;28;20111;-86
2024/01/05 03:40:25;;;;;;;22.13;12.75;;;9.10;98.50;;;;;;5052228;28;20074;-85
2024/01/05 03:42:50;;;;;;;21.77;13.10;;;9.10;98.70;;;;;;5050664;28;20453;-84
2024/01/05 03:45:16;;;;;;;23.58;13.40;;;9.10;98.70;;;;;;5051313;28;20135;-85
2024/01/05 03:47:42;;;;;;;23.55;13.77;;;9.10;98.70;;;;;;5050726;28;20059;-84
2024/01/05 03:50:08;;;;;;;23.17;14.10;;;9.20;98.80;;;;;;5033776;28;20037;-85
2024/01/05 03:52:34;;;;;;;21.42;13.38;;;9.20;98.80;;;;;;5054925;28;20032;-87
2024/01/05 03:55:01;;;;;;;24.48;14.27;;;9.30;98.70;;;;;;5065805;28;20079;-86
2024/01/05 03:57:28;;;;;;;21.92;13.38;;;9.30;98.70;;;;;;5055620;28;20437;-86
2024/01/05 03:59:53;;;;;;;21.10;12.10;;;9.30;98.70;;;;;;5057219;28;20029;-86
2024/01/05 04:02:19;;;;;;;24.25;14.32;;;9.30;98.70;;;;;;5035582;28;20029;-86
2024/01/05 04:04:45;;;;;;;20.73;12.80;;;9.30;98.60;;;;;;5039425;28;20053;-86
2024/01/05 04:07:11;;;;;;;32.72;17.80;;;9.30;98.60;;;;;;5055484;28;20439;-87
2024/01/05 04:09:37;;;;;;;39.63;21.60;;;9.30;98.50;;;;;;5058004;28;20023;-85
2024/01/05 04:12:02;;;;;;;21.30;12.32;;;9.20;98.50;;;;;;5047645;28;20028;-86
2024/01/05 04:14:28;;;;;;;25.25;14.52;;;9.10;98.70;;;;;;5058010;28;20029;-86
2024/01/05 04:16:54;;;;;;;31.95;19.48;;;9.00;98.90;;;;;;5055019;28;20033;-86
2024/01/05 04:19:20;;;;;;;34.35;16.15;;;8.90;99.10;;;;;;5053765;28;20043;-86
2024/01/05 04:21:46;;;;;;;23.20;13.20;;;8.80;99.30;;;;;;5067000;28;20044;-86
2024/01/05 04:24:12;;;;;;;23.38;13.88;;;8.80;99.50;;;;;;5062395;28;20024;-86
2024/01/05 04:26:37;;;;;;;23.50;13.75;;;8.80;99.50;;;;;;5054810;28;21067;-86
2024/01/05 04:29:03;;;;;;;19.13;11.60;;;8.80;99.40;;;;;;5051118;28;20028;-86
2024/01/05 04:31:29;;;;;;;21.73;12.45;;;8.80;99.50;;;;;;5038716;28;20025;-84
2024/01/05 04:33:55;;;;;;;23.58;13.70;;;8.80;99.40;;;;;;5054561;28;20024;-85
2024/01/05 04:36:21;;;;;;;20.85;12.13;;;8.90;99.40;;;;;;5054679;28;20104;-85
2024/01/05 04:38:46;;;;;;;21.85;13.32;;;8.90;99.40;;;;;;5054670;28;20025;-85
2024/01/05 04:41:15;;;;;;;28.63;17.05;;;8.90;99.40;;;;;;5054130;28;20094;-86
2024/01/05 04:43:40;;;;;;;18.55;10.40;;;8.90;99.40;;;;;;5054601;28;20037;-87
2024/01/05 04:46:07;;;;;;;30.85;13.55;;;8.90;99.40;;;;;;5054145;28;20047;-85
2024/01/05 04:48:33;;;;;;;23.38;14.07;;;8.90;99.40;;;;;;5054077;28;20029;-86
2024/01/05 04:51:02;;;;;;;19.23;11.40;;;8.90;99.40;;;;;;5053815;28;20476;-85
2024/01/05 04:53:28;;;;;;;21.83;13.17;;;8.90;99.40;;;;;;5050360;22;20489;-84
2024/01/05 04:55:54;;;;;;;20.25;13.35;;;8.90;99.40;;;;;;5015855;28;20033;-83
2024/01/05 04:58:23;;;;;;;25.10;16.30;;;9.00;99.40;;;;;;5023787;28;20097;-84
2024/01/05 05:00:49;;;;;;;21.50;12.82;;;9.00;99.40;;;;;;5034684;28;20495;-84
2024/01/05 05:03:15;;;;;;;19.55;11.20;;;9.00;99.40;;;;;;5016215;28;20021;-84
2024/01/05 05:05:41;;;;;;;20.52;12.68;;;9.00;99.40;;;;;;5032178;28;20710;-85
2024/01/05 05:08:13;;;;;;;17.27;10.95;;;9.00;99.40;;;;;;5046901;28;20030;-84
2024/01/05 05:10:38;;;;;;;19.90;12.50;;;9.00;99.40;;;;;;5033618;28;20032;-85
2024/01/05 05:13:04;;;;;;;19.80;12.00;;;9.00;99.30;;;;;;5032706;28;20033;-85
2024/01/05 05:15:30;;;;;;;20.17;12.15;;;9.10;99.40;;;;;;5038835;28;20045;-85
2024/01/05 05:17:56;;;;;;;20.83;11.75;;;9.10;99.30;;;;;;5034485;28;20029;-86
2024/01/05 05:20:21;;;;;;;18.98;12.02;;;9.10;99.30;;;;;;5036843;28;20029;-86
2024/01/05 05:22:47;;;;;;;19.83;12.57;;;9.20;99.20;;;;;;5047090;28;20381;-86
2024/01/05 05:25:13;;;;;;;18.90;11.40;;;9.20;99.20;;;;;;5032447;28;20073;-86
2024/01/05 05:27:38;;;;;;;17.13;11.20;;;9.20;99.10;;;;;;5039721;28;20379;-86
2024/01/05 05:30:06;;;;;;;17.45;10.20;;;9.20;99.00;;;;;;5018298;28;20030;-87
2024/01/05 05:32:32;;;;;;;18.02;11.60;;;9.20;99.00;;;;;;5036327;28;20013;-85
2024/01/05 05:34:59;;;;;;;16.58;10.93;;;9.20;99.00;;;;;;5033489;28;20342;-87
2024/01/05 05:37:24;;;;;;;19.15;11.40;;;9.20;99.00;;;;;;5033205;28;20104;-87
2024/01/05 05:39:53;;;;;;;20.27;12.13;;;9.30;98.90;;;;;;5015343;28;20165;-89
2024/01/05 05:42:19;;;;;;;14.40;9.80;;;9.30;98.90;;;;;;5040144;28;20021;-85
2024/01/05 05:44:44;;;;;;;22.25;13.68;;;9.20;98.80;;;;;;5020820;28;20044;-86
2024/01/05 05:47:10;;;;;;;23.73;13.18;;;9.20;98.70;;;;;;5033441;28;20064;-85
2024/01/05 05:49:36;;;;;;;21.85;12.68;;;9.20;98.80;;;;;;5028785;28;20033;-86
2024/01/05 05:52:04;;;;;;;32.83;20.75;;;9.20;98.80;;;;;;5035759;28;20088;-86
2024/01/05 05:54:32;;;;;;;33.05;16.83;;;9.20;98.80;;;;;;5045780;28;20026;-85
2024/01/05 05:56:58;;;;;;;20.25;12.43;;;9.10;98.80;;;;;;5021577;28;20120;-86
2024/01/05 05:59:24;;;;;;;18.13;10.88;;;9.10;98.90;;;;;;5041798;28;20112;-86
2024/01/05 06:01:50;;;;;;;23.35;13.23;;;9.00;98.90;;;;;;5028732;28;20125;-84
2024/01/05 06:04:16;;;;;;;23.73;14.75;;;9.10;98.90;;;;;;5029801;28;20033;-85
2024/01/05 06:06:42;;;;;;;31.55;13.38;;;9.00;99.00;;;;;;5019469;28;20059;-85
2024/01/05 06:09:08;;;;;;;18.52;11.88;;;9.00;99.00;;;;;;5032706;28;20396;-86
2024/01/05 06:11:34;;;;;;;25.40;15.00;;;9.00;99.00;;;;;;5015448;28;20033;-86
2024/01/05 06:14:00;;;;;;;16.83;11.43;;;9.00;99.00;;;;;;5039772;28;20029;-85
2024/01/05 06:16:26;;;;;;;15.20;9.43;;;9.00;99.00;;;;;;5016111;28;20025;-85
2024/01/05 06:18:57;;;;;;;17.05;9.82;;;9.00;99.00;;;;;;5036359;28;20164;-84
2024/01/05 06:21:23;;;;;;;21.27;10.55;;;9.00;99.00;;;;;;5013269;28;20033;-84
2024/01/05 06:23:49;;;;;;;21.02;11.30;;;9.10;99.10;;;;;;5031441;28;20033;-84
2024/01/05 06:26:15;;;;;;;19.48;12.15;;;9.10;99.00;;;;;;5027526;28;20049;-86
2024/01/05 06:28:40;;;;;;;16.35;11.27;;;9.20;99.00;;;;;;5031741;28;20446;-86
2024/01/05 06:31:06;;;;;;;20.70;10.48;;;9.20;99.00;;;;;;5035331;28;20032;-84
2024/01/05 06:33:32;;;;;;;18.08;11.38;;;9.30;98.90;;;;;;5041685;28;20481;-82
2024/01/05 06:35:58;;;;;;;19.63;12.32;;;9.30;98.80;;;;;;5034006;28;20052;-82
2024/01/05 06:38:23;;;;;;;16.13;10.82;;;9.30;98.70;;;;;;5035577;28;20207;-83
2024/01/05 06:40:50;;;;;;;17.92;10.70;;;9.30;98.80;;;;;;5034906;28;20032;-85
2024/01/05 06:43:15;;;;;;;18.77;11.10;;;9.30;98.70;;;;;;5041984;28;20068;-84
2024/01/05 06:45:41;;;;;;;19.45;11.75;;;9.30;98.80;;;;;;5037372;28;20469;-84
2024/01/05 06:48:07;;;;;;;16.48;10.15;;;9.30;98.70;;;;;;5015239;28;20052;-84
2024/01/05 06:50:32;;;;;;;17.10;11.00;;;9.40;98.60;;;;;;5042715;28;20026;-85
2024/01/05 06:52:58;;;;;;;20.33;12.35;;;9.40;98.60;;;;;;5043777;28;20489;-86
2024/01/05 06:55:24;;;;;;;18.10;10.77;;;9.40;98.60;;;;;;5033388;28;20183;-86
2024/01/05 06:57:49;;;;;;;16.85;10.13;;;9.40;98.60;;;;;;5034592;28;20021;-86
2024/01/05 07:00:15;;;;;;;20.42;12.02;;;9.50;98.50;;;;;;5034723;28;20033;-85
2024/01/05 07:02:41;;;;;;;19.35;11.15;;;9.50;98.50;;;;;;5032000;28;20021;-86
2024/01/05 07:05:07;;;;;;;18.90;11.02;;;9.60;98.40;;;;;;5040818;28;20099;-86
2024/01/05 07:07:36;;;;;;;16.00;10.02;;;9.60;98.40;;;;;;5029601;28;20032;-87
2024/01/05 07:10:02;;;;;;;17.75;10.90;;;9.60;98.10;;;;;;5011981;28;20037;-84
2024/01/05 07:12:28;;;;;;;15.85;10.20;;;9.60;98.20;;;;;;5030714;28;20454;-85
2024/01/05 07:14:53;;;;;;;21.10;11.38;;;9.60;98.30;;;;;;5037795;28;20029;-82
2024/01/05 07:17:19;;;;;;;22.67;14.23;;;9.70;98.20;;;;;;5034081;28;20083;-81
2024/01/05 07:19:45;;;;;;;17.35;10.13;;;9.70;97.90;;;;;;5031463;28;20033;-82
2024/01/05 07:22:10;;;;;;;20.65;11.05;;;9.70;97.70;;;;;;5035776;28;20029;-81
2024/01/05 07:24:37;;;;;;;13.38;9.35;;;9.70;97.90;;;;;;5033429;28;20032;-80
2024/01/05 07:27:06;;;;;;;14.38;9.45;;;9.70;97.60;;;;;;5018110;28;20037;-81
2024/01/05 07:29:32;;;;;;;19.75;10.98;;;9.60;97.70;;;;;;5016484;28;20033;-79
2024/01/05 07:31:57;;;;;;;19.20;12.55;;;9.70;97.80;;;;;;5018621;28;20115;-79
2024/01/05 07:34:23;;;;;;;19.33;11.63;;;9.70;97.80;;;;;;5032164;28;20022;-78
2024/01/05 07:36:49;;;;;;;17.55;10.23;;;9.80;97.70;;;;;;5032642;28;20113;-78
2024/01/05 07:39:15;;;;;;;18.25;10.45;;;9.80;97.70;;;;;;5035339;28;20029;-78
2024/01/05 07:41:41;;;;;;;23.17;10.82;;;9.80;97.60;;;;;;5034747;28;20389;-78
2024/01/05 07:44:06;;;;;;;27.38;16.58;;;9.90;97.40;;;;;;4998565;28;20117;-79
2024/01/05 07:46:32;;;;;;;18.15;11.48;;;9.90;97.30;;;;;;5033863;28;20116;-79
2024/01/05 07:48:58;;;;;;;23.00;12.88;;;9.90;97.30;;;;;;5041750;28;20025;-79
2024/01/05 07:51:24;;;;;;;21.55;12.10;;;9.90;97.30;;;;;;5035170;28;20033;-79
2024/01/05 07:53:50;;;;;;;20.55;11.32;;;9.90;97.10;;;;;;5050689;28;20045;-79
2024/01/05 07:56:17;;;;;;;17.80;11.15;;;10.00;97.30;;;;;;5040436;28;20365;-79
2024/01/05 07:58:44;;;;;;;18.25;10.88;;;10.00;97.20;;;;;;5053023;28;20434;-79
2024/01/05 08:01:19;;;;;;;20.50;11.50;;;10.00;97.10;;;;;;5038371;28;20500;-79
2024/01/05 08:03:46;;;;;;;17.92;11.32;;;10.00;97.10;;;;;;5037996;28;20047;-78
2024/01/05 08:06:18;;;;;;;18.23;10.98;;;10.10;97.10;;;;;;5029926;28;20029;-79
2024/01/05 08:08:45;;;;;;;16.50;10.20;;;10.10;97.00;;;;;;5024459;28;20038;-79
2024/01/05 08:11:12;;;;;;;19.95;11.93;;;10.10;97.10;;;;;;5035390;28;20021;-79
2024/01/05 08:13:37;;;;;;;19.83;12.02;;;10.20;97.00;;;;;;5055950;28;20110;-79
2024/01/05 08:16:03;;;;;;;17.23;10.98;;;10.30;97.00;;;;;;5049768;28;20088;-79
2024/01/05 08:18:29;;;;;;;18.05;11.05;;;10.30;96.80;;;;;;5050863;28;20033;-80
2024/01/05 08:20:55;;;;;;;21.17;13.52;;;10.40;96.90;;;;;;5033747;28;20036;-80
2024/01/05 08:23:20;;;;;;;17.55;11.52;;;10.40;96.80;;;;;;5038217;28;20075;-80
2024/01/05 08:25:47;;;;;;;19.30;11.98;;;10.40;96.70;;;;;;5031934;28;20033;-79
2024/01/05 08:28:13;;;;;;;20.48;11.63;;;10.40;96.70;;;;;;5033306;28;20064;-80
2024/01/05 08:30:39;;;;;;;20.13;11.25;;;10.50;96.70;;;;;;5018585;28;20500;-78
2024/01/05 08:33:05;;;;;;;16.30;11.70;;;10.50;96.60;;;;;;5033972;28;20033;-78
2024/01/05 08:35:32;;;;;;;19.30;11.70;;;10.50;96.60;;;;;;5048956;28;20086;-78
2024/01/05 08:37:57;;;;;;;18.02;12.23;;;10.50;96.50;;;;;;5036625;28;20092;-78
2024/01/05 08:40:26;;;;;;;18.33;11.73;;;10.60;96.60;;;;;;5043360;28;20037;-80
2024/01/05 08:42:52;;;;;;;17.20;11.35;;;10.60;96.60;;;;;;5033930;28;20362;-80
2024/01/05 08:45:19;;;;;;;20.50;11.27;;;10.60;96.60;;;;;;5038806;28;20481;-80
2024/01/05 08:47:45;;;;;;;17.92;11.60;;;10.60;96.40;;;;;;5035169;28;20100;-79
2024/01/05 08:50:11;;;;;;;17.67;11.35;;;10.60;96.30;;;;;;5033947;28;20422;-80
2024/01/05 08:52:37;;;;;;;17.33;10.80;;;10.70;96.40;;;;;;5033284;28;20049;-80
2024/01/05 08:55:03;;;;;;;18.45;11.35;;;10.70;96.40;;;;;;5016846;28;20029;-78
2024/01/05 08:57:29;;;;;;;24.90;15.43;;;10.80;96.40;;;;;;5011071;28;20339;-79
2024/01/05 08:59:55;;;;;;;24.48;14.80;;;10.80;96.40;;;;;;5015403;28;20040;-80
2024/01/05 09:02:29;;;;;;;16.65;11.52;;;10.80;96.30;;;;;;5034081;28;20025;-80
2024/01/05 09:04:55;;;;;;;17.15;10.98;;;10.80;96.10;;;;;;5025864;28;20038;-78
2024/01/05 09:07:20;;;;;;;19.63;11.80;;;10.90;96.30;;;;;;5032854;28;20044;-79
2024/01/05 09:09:46;;;;;;;20.73;12.38;;;10.90;96.30;;;;;;5033690;28;20030;-80
2024/01/05 09:12:12;;;;;;;21.73;13.57;;;11.00;96.30;;;;;;5033910;28;20029;-78
2024/01/05 09:14:37;;;;;;;17.48;11.90;;;11.00;96.10;;;;;;5034101;28;20104;-77
2024/01/05 09:17:04;;;;;;;19.98;12.55;;;11.10;96.20;;;;;;5029310;28;20033;-78
2024/01/05 09:19:30;;;;;;;17.58;10.98;;;11.10;96.20;;;;;;5033601;28;20454;-78
2024/01/05 09:21:56;;;;;;;18.27;11.55;;;11.20;96.40;;;;;;5014847;28;20461;-77
2024/01/05 09:24:21;;;;;;;22.55;13.30;;;11.40;96.30;;;;;;5026159;28;20048;-79
2024/01/05 09:26:50;;;;;;;17.77;11.60;;;11.50;96.00;;;;;;5033318;28;20421;-78
2024/01/05 09:29:16;;;;;;;21.40;12.70;;;11.70;96.00;;;;;;5015755;28;20024;-79
2024/01/05 09:31:46;;;;;;;20.42;12.63;;;11.80;95.80;;;;;;5028923;28;20378;-79
2024/01/05 09:34:12;;;;;;;22.33;12.25;;;11.90;95.60;;;;;;5027819;28;20045;-79
2024/01/05 09:36:43;;;;;;;19.77;12.48;;;11.90;95.50;;;;;;5031149;28;20037;-79
2024/01/05 09:39:12;;;;;;;18.73;11.23;;;11.90;95.10;;;;;;5013438;28;20057;-78
2024/01/05 09:41:39;;;;;;;27.77;17.17;;;11.90;95.00;;;;;;5032618;28;20026;-79
2024/01/05 09:44:05;;;;;;;17.33;12.20;;;11.90;94.60;;;;;;5030585;28;20033;-78
2024/01/05 09:46:32;;;;;;;23.48;14.95;;;11.90;95.20;;;;;;5030811;28;20025;-80
2024/01/05 09:48:58;;;;;;;21.60;13.38;;;11.80;94.70;;;;;;5022258;28;20339;-81
2024/01/05 09:51:28;;;;;;;18.98;12.43;;;11.70;94.90;;;;;;5025968;28;20018;-81
2024/01/05 09:53:53;;;;;;;16.80;11.23;;;11.70;95.00;;;;;;5012652;28;20121;-80
2024/01/05 09:56:21;;;;;;;24.73;15.02;;;11.70;95.20;;;;;;5008286;28;20372;-80
2024/01/05 09:58:50;;;;;;;19.77;12.27;;;11.70;95.10;;;;;;5009831;28;20034;-80
2024/01/05 10:01:23;;;;;;;17.08;10.55;;;11.70;95.10;;;;;;5006417;28;20030;-80
2024/01/05 10:03:54;;;;;;;27.85;17.25;;;11.70;95.20;;;;;;5008689;28;20072;-80
2024/01/05 10:06:20;;;;;;;26.33;16.42;;;11.70;95.20;;;;;;5020046;28;20025;-80
2024/01/05 10:08:46;;;;;;;21.77;13.25;;;11.60;95.30;;;;;;5019986;28;20128;-79
2024/01/05 10:11:12;;;;;;;18.70;11.10;;;11.60;95.40;;;;;;5022890;28;20018;-80
2024/01/05 10:13:54;;;;;;;31.08;19.23;;;11.60;95.50;;;;;;5024947;28;20034;-80
2024/01/05 10:16:23;;;;;;;19.63;12.75;;;11.60;95.70;;;;;;4993153;28;20406;-79
2024/01/05 10:18:50;;;;;;;20.05;12.93;;;11.60;95.70;;;;;;5010698;28;20474;-80
2024/01/05 10:21:16;;;;;;;21.17;13.55;;;11.50;95.60;;;;;;4988651;28;20106;-80
2024/01/05 10:23:42;;;;;;;20.35;13.15;;;11.60;95.70;;;;;;4994391;28;20041;-80
2024/01/05 10:26:21;;;;;;;17.52;11.95;;;11.60;95.70;;;;;;5009630;28;20026;-80
2024/01/05 10:28:48;;;;;;;18.27;12.02;;;11.60;95.70;;;;;;5010621;28;20060;-80
2024/01/05 10:31:16;;;;;;;24.08;13.82;;;11.70;95.70;;;;;;4993681;28;20614;-80
2024/01/05 10:33:55;;;;;;;19.98;12.32;;;11.70;95.60;;;;;;4993859;28;20108;-80
2024/01/05 10:36:26;;;;;;;25.50;15.20;;;11.80;95.70;;;;;;5009876;28;20470;-80
2024/01/05 10:38:52;;;;;;;23.58;14.35;;;11.80;95.60;;;;;;5012529;28;20030;-79
2024/01/05 10:41:20;;;;;;;24.17;14.82;;;11.90;95.60;;;;;;5008611;28;20082;-80
2024/01/05 10:43:47;;;;;;;26.88;16.50;;;11.90;95.50;;;;;;5006120;28;20529;-80
2024/01/05 10:46:22;;;;;;;20.73;12.65;;;12.00;95.50;;;;;;5004774;28;20497;-80
2024/01/05 10:48:49;;;;;;;18.90;11.57;;;12.20;95.50;;;;;;5008190;28;20151;-80
2024/01/05 10:51:18;;;;;;;18.27;11.43;;;12.30;95.40;;;;;;5018363;28;20053;-79
2024/01/05 10:53:46;;;;;;;31.88;19.35;;;12.50;95.40;;;;;;5028297;28;20029;-79
2024/01/05 10:56:13;;;;;;;30.85;18.45;;;12.50;94.70;;;;;;5030071;28;20032;-78
2024/01/05 10:58:40;;;;;;;19.02;12.38;;;12.50;94.80;;;;;;5027565;28;20478;-78
2024/01/05 11:01:09;;;;;;;24.73;16.40;;;12.40;94.70;;;;;;5031499;28;20081;-78
2024/01/05 11:03:40;;;;;;;18.77;10.90;;;12.30;94.70;;;;;;5033275;28;20055;-80
2024/01/05 11:06:08;;;;;;;16.00;11.27;;;12.20;94.80;;;;;;5017852;28;20042;-80
2024/01/05 11:08:42;;;;;;;30.17;18.15;;;12.20;95.00;;;;;;5043647;28;20560;-80
2024/01/05 11:11:29;;;;;;;27.20;16.35;;;12.10;95.10;;;;;;5037463;28;20022;-79
2024/01/05 11:27:35;;;;;;;17.10;11.45;;;11.90;95.30;;;;;;5085767;27;20405;-80
2024/01/05 11:30:04;;;;;;;17.67;11.80;;;12.80;95.40;;;;;;5087707;28;20546;-77
2024/01/05 11:32:42;;;;;;;26.23;15.13;;;12.90;95.20;;;;;;5084244;28;20039;-77
2024/01/05 11:35:17;;;;;;;20.65;12.15;;;13.10;94.70;;;;;;5089597;28;20798;-77
2024/01/05 11:37:48;;;;;;;18.48;11.48;;;13.20;94.70;;;;;;5089496;28;20031;-81
2024/01/05 11:40:31;;;;;;;17.08;11.38;;;13.20;94.30;;;;;;5085228;28;20032;-77
2024/01/05 11:42:58;;;;;;;15.70;10.30;;;13.10;94.30;;;;;;5084524;28;20032;-79
2024/01/05 11:45:45;;;;;;;15.80;10.30;;;13.10;94.40;;;;;;5088628;28;20385;-79
2024/01/05 11:48:33;;;;;;;17.85;10.85;;;13.00;94.50;;;;;;5089355;28;20040;-80
2024/01/05 11:51:00;;;;;;;16.02;10.23;;;13.00;94.60;;;;;;5083937;28;20500;-79
2024/01/05 11:53:28;;;;;;;20.35;13.35;;;13.00;94.50;;;;;;5089550;28;20066;-79
2024/01/05 11:56:03;;;;;;;19.10;12.30;;;12.90;94.40;;;;;;5089260;28;20024;-79
2024/01/05 11:58:36;;;;;;;17.25;11.40;;;12.80;94.60;;;;;;5089645;28;20056;-79
2024/01/05 12:01:04;;;;;;;20.77;12.18;;;12.70;94.60;;;;;;5085484;28;20725;-77
2024/01/05 12:03:30;;;;;;;16.33;10.40;;;12.70;94.80;;;;;;5084898;28;20025;-78
2024/01/05 12:05:59;;;;;;;19.35;11.25;;;12.60;94.90;;;;;;5089661;28;20086;-78
2024/01/05 12:08:25;;;;;;;18.33;11.68;;;12.50;95.00;;;;;;5084674;28;20052;-78
2024/01/05 12:10:55;;;;;;;19.90;11.05;;;12.40;95.10;;;;;;5079579;28;20024;-77
2024/01/05 12:13:26;;;;;;;19.55;12.00;;;12.50;95.20;;;;;;5087282;28;20036;-77
2024/01/05 12:15:55;;;;;;;20.23;12.23;;;12.50;95.30;;;;;;5084964;28;20461;-78
2024/01/05 12:18:31;;;;;;;19.95;12.18;;;12.40;95.30;;;;;;5083715;28;20028;-78
2024/01/05 12:20:58;;;;;;;17.17;9.73;;;12.40;95.30;;;;;;5087244;28;20043;-81
2024/01/05 12:23:29;;;;;;;15.98;9.88;;;12.40;95.30;;;;;;5088359;28;20416;-81
2024/01/05 12:26:03;;;;;;;16.83;10.35;;;12.40;95.40;;;;;;5089204;28;20048;-81
2024/01/05 12:28:33;;;;;;;18.73;9.73;;;12.30;95.50;;;;;;5067720;28;20032;-81
2024/01/05 12:31:00;;;;;;;17.00;10.32;;;12.30;95.50;;;;;;5071332;28;20382;-81
2024/01/05 12:33:27;;;;;;;16.70;9.77;;;12.30;95.60;;;;;;5074649;28;20366;-80
2024/01/05 12:35:53;;;;;;;14.65;9.98;;;12.30;95.70;;;;;;5073923;28;20024;-82
2024/01/05 12:38:24;;;;;;;18.60;10.10;;;12.30;95.70;;;;;;5074901;28;20066;-81
2024/01/05 12:40:51;;;;;;;14.90;9.32;;;12.30;95.70;;;;;;5070238;28;20025;-81
2024/01/05 12:43:17;;;;;;;19.58;10.18;;;12.30;95.80;;;;;;5075199;28;20028;-81
2024/01/05 12:45:47;;;;;;;15.25;9.13;;;12.30;95.80;;;;;;5071833;28;20028;-81